Time;durP1;ratioP1;P1;durP2;ratioP2;P2;SDS_P1;SDS_P2;PMS_P1;PMS_P2;Temp;Humidity;BMP_temperature;BMP_pressure;BME280_temperature;BME280_humidity;BME280_pressure;Samples;Min_cycle;Max_cycle;Signal;HPM_P1;HPM_P2
2022/06/18 00:00:18;;;;;;;7.52;5.33;;;;;;;;;;351129;151;858659;-58
2022/06/18 00:01:20;;;;;;;9.70;5.40;;;;;;;;;;350546;152;864750;-58
2022/06/18 00:02:23;;;;;;;6.13;5.34;;;;;;;;;;350343;152;857244;-58
2022/06/18 00:03:24;;;;;;;5.61;4.90;;;;;;;;;;351434;151;858154;-58
2022/06/18 00:04:26;;;;;;;7.69;5.47;;;;;;;;;;353217;150;864756;-58
2022/06/18 00:05:27;;;;;;;6.07;5.27;;;;;;;;;;352570;150;864735;-58
2022/06/18 00:06:29;;;;;;;9.31;5.36;;;;;;;;;;353644;150;857357;-58
2022/06/18 00:07:31;;;;;;;6.98;5.31;;;;;;;;;;353972;149;858830;-58
2022/06/18 00:08:32;;;;;;;10.05;5.18;;;;;;;;;;353217;150;857351;-58
2022/06/18 00:09:35;;;;;;;9.66;5.52;;;;;;;;;;353682;150;857302;-58
2022/06/18 00:10:37;;;;;;;5.94;5.29;;;;;;;;;;353334;150;857328;-58
2022/06/18 00:14:29;;;;;;;6.66;5.23;;;;;;;;;;349950;149;866222;-58
2022/06/18 00:15:31;;;;;;;7.32;5.23;;;;;;;;;;351833;150;859311;-58
2022/06/18 00:16:33;;;;;;;12.61;5.05;;;;;;;;;;354995;149;866624;-58
2022/06/18 00:17:35;;;;;;;8.44;5.38;;;;;;;;;;353244;150;859647;-58
2022/06/18 00:18:36;;;;;;;9.98;5.59;;;;;;;;;;352015;150;857678;-58
2022/06/18 00:19:38;;;;;;;7.37;5.88;;;;;;;;;;353662;150;857807;-59
2022/06/18 00:20:39;;;;;;;6.88;5.34;;;;;;;;;;354343;150;859666;-58
2022/06/18 00:21:41;;;;;;;8.19;5.57;;;;;;;;;;347840;153;865529;-58
2022/06/18 00:22:45;;;;;;;5.70;5.14;;;;;;;;;;346488;151;857905;-59
2022/06/18 00:23:46;;;;;;;5.56;4.69;;;;;;;;;;355331;148;857271;-58
2022/06/18 00:24:48;;;;;;;4.94;4.18;;;;;;;;;;352097;150;857300;-58
2022/06/18 00:25:50;;;;;;;6.16;4.91;;;;;;;;;;352716;150;857695;-59
2022/06/18 00:26:52;;;;;;;5.71;4.85;;;;;;;;;;352040;150;858902;-58
2022/06/18 00:27:54;;;;;;;9.29;5.79;;;;;;;;;;352497;150;857283;-59
2022/06/18 00:28:55;;;;;;;5.95;4.95;;;;;;;;;;352923;149;857379;-58
2022/06/18 00:29:57;;;;;;;6.59;4.91;;;;;;;;;;351946;149;857356;-58
2022/06/18 00:30:59;;;;;;;8.32;4.95;;;;;;;;;;353124;150;857928;-58
2022/06/18 00:32:00;;;;;;;5.98;5.26;;;;;;;;;;353329;150;864903;-58
2022/06/18 00:33:02;;;;;;;6.30;5.49;;;;;;;;;;354142;148;857245;-58
2022/06/18 00:34:03;;;;;;;7.23;5.48;;;;;;;;;;353483;149;867238;-58
2022/06/18 00:35:06;;;;;;;9.21;5.64;;;;;;;;;;353009;150;858217;-58
2022/06/18 00:36:13;;;;;;;11.63;5.91;;;;;;;;;;352806;150;866350;-58
2022/06/18 00:37:16;;;;;;;6.95;6.06;;;;;;;;;;353424;149;865405;-61
2022/06/18 00:38:19;;;;;;;8.12;5.52;;;;;;;;;;353952;149;857228;-58
2022/06/18 00:39:21;;;;;;;7.06;5.85;;;;;;;;;;354620;150;858155;-58
2022/06/18 00:40:28;;;;;;;7.90;5.23;;;;;;;;;;353270;150;859317;-58
2022/06/18 00:41:32;;;;;;;6.52;5.33;;;;;;;;;;353464;150;866409;-59
2022/06/18 00:42:34;;;;;;;10.24;5.49;;;;;;;;;;352522;149;857363;-59
2022/06/18 00:43:40;;;;;;;6.85;5.55;;;;;;;;;;351551;149;864864;-60
2022/06/18 00:44:41;;;;;;;5.92;5.38;;;;;;;;;;353485;149;859063;-59
2022/06/18 00:45:43;;;;;;;12.04;5.46;;;;;;;;;;353191;150;857353;-58
2022/06/18 00:46:58;;;;;;;5.99;4.66;;;;;;;;;;353199;149;856847;-59
2022/06/18 00:48:08;;;;;;;6.64;4.84;;;;;;;;;;353264;148;859767;-58
2022/06/18 00:49:11;;;;;;;6.61;4.71;;;;;;;;;;353110;149;857844;-59
2022/06/18 00:50:24;;;;;;;7.36;4.87;;;;;;;;;;351986;150;857219;-59
2022/06/18 00:51:31;;;;;;;5.49;4.99;;;;;;;;;;352051;149;859292;-58
2022/06/18 00:52:43;;;;;;;6.58;4.89;;;;;;;;;;352297;150;857306;-58
2022/06/18 00:53:47;;;;;;;7.87;4.82;;;;;;;;;;353336;149;857315;-59
2022/06/18 00:54:50;;;;;;;5.19;4.59;;;;;;;;;;352898;150;859547;-59
2022/06/18 00:55:56;;;;;;;6.30;4.86;;;;;;;;;;352363;150;864719;-58
2022/06/18 00:57:00;;;;;;;10.83;5.47;;;;;;;;;;353033;150;857239;-58
2022/06/18 00:58:03;;;;;;;5.64;5.08;;;;;;;;;;353094;150;858775;-59
2022/06/18 00:59:16;;;;;;;5.59;5.07;;;;;;;;;;350892;149;857231;-59
2022/06/18 01:00:20;;;;;;;7.12;5.32;;;;;;;;;;352446;150;864776;-59
2022/06/18 01:01:26;;;;;;;6.39;5.32;;;;;;;;;;352139;149;860534;-59
2022/06/18 01:02:28;;;;;;;5.53;4.74;;;;;;;;;;351526;149;857273;-59
2022/06/18 01:03:31;;;;;;;5.77;4.89;;;;;;;;;;353142;149;857340;-59
2022/06/18 01:04:34;;;;;;;8.51;5.24;;;;;;;;;;352893;149;866366;-59
2022/06/18 01:05:36;;;;;;;5.57;5.01;;;;;;;;;;353144;148;857407;-59
2022/06/18 01:06:38;;;;;;;7.23;5.08;;;;;;;;;;354839;148;859345;-59
2022/06/18 01:07:40;;;;;;;5.59;5.00;;;;;;;;;;353855;150;865505;-59
2022/06/18 01:08:41;;;;;;;5.85;5.20;;;;;;;;;;354025;148;860247;-59
2022/06/18 01:09:43;;;;;;;8.41;4.99;;;;;;;;;;352863;148;857343;-59
2022/06/18 01:10:46;;;;;;;8.67;5.04;;;;;;;;;;353878;148;857243;-59
2022/06/18 01:11:48;;;;;;;5.70;4.99;;;;;;;;;;353522;148;857387;-59
2022/06/18 01:12:49;;;;;;;7.05;5.13;;;;;;;;;;352348;148;866218;-59
2022/06/18 01:13:51;;;;;;;5.61;5.11;;;;;;;;;;353756;148;864131;-58
2022/06/18 01:15:00;;;;;;;5.11;4.68;;;;;;;;;;353976;148;858810;-59
2022/06/18 01:16:02;;;;;;;6.78;5.35;;;;;;;;;;352903;150;858968;-59
2022/06/18 01:17:06;;;;;;;6.64;5.54;;;;;;;;;;353331;149;857382;-59
2022/06/18 01:18:07;;;;;;;5.69;4.53;;;;;;;;;;353038;150;865270;-59
2022/06/18 01:19:10;;;;;;;5.51;5.01;;;;;;;;;;352179;150;865370;-58
2022/06/18 01:20:13;;;;;;;6.58;5.35;;;;;;;;;;352418;150;866323;-58
2022/06/18 01:21:17;;;;;;;5.60;4.91;;;;;;;;;;355249;150;857805;-59
2022/06/18 01:22:37;;;;;;;6.89;5.48;;;;;;;;;;351964;150;857408;-59
2022/06/18 01:23:39;;;;;;;7.38;5.16;;;;;;;;;;346562;151;856656;-59
2022/06/18 01:24:41;;;;;;;7.22;5.11;;;;;;;;;;349073;151;863900;-59
2022/06/18 01:25:42;;;;;;;5.91;4.90;;;;;;;;;;348894;151;857835;-58
2022/06/18 01:26:44;;;;;;;5.96;5.06;;;;;;;;;;347839;151;857458;-58
2022/06/18 01:27:46;;;;;;;8.13;5.15;;;;;;;;;;347870;151;865721;-58
2022/06/18 01:28:48;;;;;;;7.23;5.41;;;;;;;;;;347684;151;859427;-58
2022/06/18 01:29:49;;;;;;;7.82;4.94;;;;;;;;;;345462;151;857175;-58
2022/06/18 01:30:51;;;;;;;5.87;4.77;;;;;;;;;;346911;151;858828;-58
2022/06/18 01:31:52;;;;;;;5.69;5.14;;;;;;;;;;346738;151;866324;-58
2022/06/18 01:32:54;;;;;;;6.81;4.89;;;;;;;;;;347184;151;857273;-57
2022/06/18 01:33:56;;;;;;;7.77;5.09;;;;;;;;;;348681;151;857447;-58
2022/06/18 01:34:58;;;;;;;9.13;5.14;;;;;;;;;;343133;153;866651;-57
2022/06/18 01:36:00;;;;;;;5.57;4.69;;;;;;;;;;345743;151;865775;-58
2022/06/18 01:37:02;;;;;;;5.30;4.80;;;;;;;;;;341826;155;858992;-58
2022/06/18 01:38:04;;;;;;;7.76;5.14;;;;;;;;;;346336;151;857168;-57
2022/06/18 01:39:07;;;;;;;5.52;5.01;;;;;;;;;;346558;152;866597;-59
2022/06/18 01:40:10;;;;;;;6.41;4.59;;;;;;;;;;347715;152;857583;-58
2022/06/18 01:42:39;;;;;;;7.67;4.79;;;;;;;;;;338014;158;859564;-60
2022/06/18 01:43:41;;;;;;;6.24;4.96;;;;;;;;;;341646;156;859118;-60
2022/06/18 01:44:50;;;;;;;5.03;4.56;;;;;;;;;;341972;155;859244;-59
2022/06/18 01:45:53;;;;;;;5.88;4.92;;;;;;;;;;342444;156;858211;-60
2022/06/18 01:46:56;;;;;;;5.36;4.85;;;;;;;;;;340853;155;857233;-60
2022/06/18 01:47:59;;;;;;;5.59;5.09;;;;;;;;;;341420;155;857330;-59
2022/06/18 01:49:01;;;;;;;6.53;5.41;;;;;;;;;;336523;156;857399;-59
2022/06/18 01:50:08;;;;;;;6.44;5.38;;;;;;;;;;341630;156;858579;-57
2022/06/18 01:51:14;;;;;;;6.47;4.69;;;;;;;;;;341181;155;859065;-58
2022/06/18 01:52:16;;;;;;;5.98;5.00;;;;;;;;;;340950;156;857902;-58
2022/06/18 01:53:31;;;;;;;6.52;5.24;;;;;;;;;;341829;156;857828;-58
2022/06/18 01:54:34;;;;;;;6.97;5.13;;;;;;;;;;340733;155;857430;-57
2022/06/18 01:55:40;;;;;;;5.44;4.55;;;;;;;;;;341116;155;858824;-58
2022/06/18 01:56:43;;;;;;;5.64;4.97;;;;;;;;;;340015;156;857332;-58
2022/06/18 01:57:46;;;;;;;5.59;4.93;;;;;;;;;;340695;156;857373;-58
2022/06/18 01:58:52;;;;;;;6.62;5.25;;;;;;;;;;340053;156;858977;-58
2022/06/18 01:59:55;;;;;;;5.42;4.84;;;;;;;;;;340599;156;858415;-56
2022/06/18 02:00:57;;;;;;;6.87;5.04;;;;;;;;;;340540;155;857258;-57
2022/06/18 02:01:58;;;;;;;5.79;5.03;;;;;;;;;;339596;155;858540;-58
2022/06/18 02:03:00;;;;;;;8.81;5.44;;;;;;;;;;341364;156;857327;-58
2022/06/18 02:04:02;;;;;;;6.21;5.45;;;;;;;;;;341940;156;857298;-58
2022/06/18 02:05:04;;;;;;;9.83;5.01;;;;;;;;;;341157;156;857256;-58
2022/06/18 02:06:06;;;;;;;6.57;5.41;;;;;;;;;;339288;156;866298;-58
2022/06/18 02:07:08;;;;;;;6.42;5.18;;;;;;;;;;334946;159;858187;-58
2022/06/18 02:08:10;;;;;;;8.78;5.41;;;;;;;;;;347111;151;857361;-58
2022/06/18 02:09:13;;;;;;;6.04;5.37;;;;;;;;;;353181;149;858088;-58
2022/06/18 02:10:21;;;;;;;5.65;5.07;;;;;;;;;;352387;149;865264;-58
2022/06/18 02:11:22;;;;;;;7.03;5.50;;;;;;;;;;352807;150;860024;-57
2022/06/18 02:12:27;;;;;;;8.93;5.61;;;;;;;;;;352754;150;858109;-58
2022/06/18 02:13:31;;;;;;;5.95;5.18;;;;;;;;;;352508;149;858295;-58
2022/06/18 02:14:33;;;;;;;6.75;5.77;;;;;;;;;;353019;149;857140;-57
2022/06/18 02:15:35;;;;;;;6.29;5.44;;;;;;;;;;353348;149;859018;-57
2022/06/18 02:16:40;;;;;;;5.89;5.22;;;;;;;;;;352082;149;859912;-58
2022/06/18 02:17:42;;;;;;;6.97;5.69;;;;;;;;;;353074;150;865438;-58
2022/06/18 02:18:45;;;;;;;6.95;5.34;;;;;;;;;;352280;149;858262;-58
2022/06/18 02:19:52;;;;;;;6.43;5.56;;;;;;;;;;352067;150;857780;-59
2022/06/18 02:20:54;;;;;;;7.03;5.71;;;;;;;;;;352496;149;866195;-58
2022/06/18 02:21:56;;;;;;;7.30;5.75;;;;;;;;;;352503;150;859011;-57
2022/06/18 02:22:58;;;;;;;6.26;5.71;;;;;;;;;;351467;150;864757;-57
2022/06/18 02:23:59;;;;;;;8.48;6.21;;;;;;;;;;352562;150;865671;-58
2022/06/18 02:25:01;;;;;;;11.51;6.30;;;;;;;;;;354128;150;858653;-58
2022/06/18 02:26:04;;;;;;;6.32;5.72;;;;;;;;;;352961;150;858617;-59
2022/06/18 02:27:05;;;;;;;6.30;5.60;;;;;;;;;;353525;148;864960;-59
2022/06/18 02:28:23;;;;;;;6.49;5.80;;;;;;;;;;352377;150;857369;-59
2022/06/18 02:29:26;;;;;;;6.67;5.86;;;;;;;;;;351774;149;858101;-59
2022/06/18 02:30:29;;;;;;;6.89;6.25;;;;;;;;;;351701;150;857268;-59
2022/06/18 02:31:32;;;;;;;9.23;6.29;;;;;;;;;;351746;150;860098;-59
2022/06/18 02:32:51;;;;;;;8.67;6.09;;;;;;;;;;347676;153;857949;-59
2022/06/18 02:33:53;;;;;;;7.26;5.81;;;;;;;;;;348472;149;860330;-59
2022/06/18 02:34:55;;;;;;;6.75;5.43;;;;;;;;;;351957;150;859079;-58
2022/06/18 02:36:00;;;;;;;7.66;6.01;;;;;;;;;;351850;149;857254;-59
2022/06/18 02:37:03;;;;;;;8.96;6.44;;;;;;;;;;352084;150;857349;-59
2022/06/18 02:38:18;;;;;;;6.49;5.86;;;;;;;;;;352144;148;859491;-58
2022/06/18 02:39:33;;;;;;;7.34;6.17;;;;;;;;;;352747;150;856377;-59
2022/06/18 02:40:35;;;;;;;7.24;6.19;;;;;;;;;;352432;148;856617;-59
2022/06/18 02:41:37;;;;;;;7.94;6.09;;;;;;;;;;352924;150;857588;-58
2022/06/18 02:42:39;;;;;;;8.71;5.93;;;;;;;;;;352479;150;864685;-59
2022/06/18 02:43:41;;;;;;;6.64;5.85;;;;;;;;;;351426;148;856342;-58
2022/06/18 02:44:44;;;;;;;7.17;6.46;;;;;;;;;;351682;150;856555;-58
2022/06/18 02:45:46;;;;;;;7.90;7.09;;;;;;;;;;352444;148;856382;-58
2022/06/18 02:46:48;;;;;;;9.27;6.50;;;;;;;;;;352801;150;856245;-59
2022/06/18 02:47:50;;;;;;;9.69;6.46;;;;;;;;;;352549;150;856787;-59
2022/06/18 02:48:52;;;;;;;7.32;6.30;;;;;;;;;;353524;149;864005;-59
2022/06/18 02:49:56;;;;;;;7.32;6.36;;;;;;;;;;352641;149;856324;-59
2022/06/18 02:50:58;;;;;;;7.12;5.89;;;;;;;;;;351854;150;859121;-58
2022/06/18 02:52:00;;;;;;;8.22;6.86;;;;;;;;;;352604;150;858534;-58
2022/06/18 02:53:04;;;;;;;6.59;6.01;;;;;;;;;;352319;150;857162;-59
2022/06/18 02:54:05;;;;;;;7.08;5.64;;;;;;;;;;340825;154;857285;-59
2022/06/18 02:55:09;;;;;;;9.49;6.46;;;;;;;;;;352044;150;859716;-57
2022/06/18 02:56:12;;;;;;;8.70;5.92;;;;;;;;;;336937;151;858916;-58
2022/06/18 02:57:19;;;;;;;8.23;7.41;;;;;;;;;;352140;148;857306;-58
2022/06/18 02:58:26;;;;;;;8.09;6.94;;;;;;;;;;351813;149;859428;-58
2022/06/18 02:59:27;;;;;;;8.87;6.86;;;;;;;;;;353179;148;858991;-58
2022/06/18 03:00:29;;;;;;;6.71;5.64;;;;;;;;;;351944;150;856835;-59
2022/06/18 03:01:32;;;;;;;8.07;6.68;;;;;;;;;;352910;150;864684;-58
2022/06/18 03:02:33;;;;;;;9.27;6.97;;;;;;;;;;351790;149;856378;-58
2022/06/18 03:03:36;;;;;;;8.93;7.09;;;;;;;;;;353108;149;857355;-60
2022/06/18 03:04:38;;;;;;;6.78;6.18;;;;;;;;;;351525;150;858315;-59
2022/06/18 03:05:40;;;;;;;8.51;7.13;;;;;;;;;;351866;149;857539;-59
2022/06/18 03:06:41;;;;;;;8.32;6.89;;;;;;;;;;351178;150;864148;-58
2022/06/18 03:07:43;;;;;;;7.63;6.89;;;;;;;;;;352272;150;858134;-58
2022/06/18 03:08:46;;;;;;;10.44;6.44;;;;;;;;;;351067;150;857277;-58
2022/06/18 03:12:27;;;;;;;8.51;7.69;;;;;;;;;;352422;149;864925;-57
2022/06/18 03:13:29;;;;;;;10.97;7.74;;;;;;;;;;351445;150;864946;-57
2022/06/18 03:14:30;;;;;;;9.28;7.35;;;;;;;;;;352717;150;857792;-58
2022/06/18 03:15:32;;;;;;;9.84;7.48;;;;;;;;;;353088;150;857325;-58
2022/06/18 03:16:34;;;;;;;8.41;7.61;;;;;;;;;;351759;149;865189;-57
2022/06/18 03:17:35;;;;;;;9.56;7.84;;;;;;;;;;353046;150;857988;-58
2022/06/18 03:18:37;;;;;;;11.61;8.23;;;;;;;;;;352290;149;865107;-58
2022/06/18 03:19:39;;;;;;;10.21;8.49;;;;;;;;;;352388;149;857372;-58
2022/06/18 03:21:00;;;;;;;10.42;8.56;;;;;;;;;;353112;149;857382;-58
2022/06/18 03:22:04;;;;;;;10.01;8.40;;;;;;;;;;352019;150;859603;-58
2022/06/18 03:23:05;;;;;;;12.36;8.74;;;;;;;;;;352240;149;859683;-59
2022/06/18 03:24:07;;;;;;;11.59;8.44;;;;;;;;;;352626;150;857712;-58
2022/06/18 03:25:09;;;;;;;9.47;8.53;;;;;;;;;;351904;150;857363;-58
2022/06/18 03:26:13;;;;;;;10.15;8.59;;;;;;;;;;350908;150;857230;-59
2022/06/18 03:27:14;;;;;;;9.91;8.79;;;;;;;;;;352891;149;858998;-58
2022/06/18 03:28:17;;;;;;;9.90;8.67;;;;;;;;;;350228;150;857269;-58
2022/06/18 03:29:18;;;;;;;10.86;8.95;;;;;;;;;;354202;150;866897;-58
2022/06/18 03:30:20;;;;;;;10.05;8.97;;;;;;;;;;354863;149;856953;-58
2022/06/18 03:31:22;;;;;;;13.81;8.96;;;;;;;;;;351604;150;866681;-57
2022/06/18 03:32:23;;;;;;;10.27;8.85;;;;;;;;;;352899;149;865008;-57
2022/06/18 03:33:24;;;;;;;12.46;8.95;;;;;;;;;;350646;150;858998;-57
2022/06/18 03:34:26;;;;;;;9.83;8.85;;;;;;;;;;350633;150;859714;-58
2022/06/18 03:35:28;;;;;;;11.34;9.41;;;;;;;;;;352777;149;857561;-58
2022/06/18 03:36:30;;;;;;;11.97;9.69;;;;;;;;;;350390;149;857408;-58
2022/06/18 03:37:31;;;;;;;16.80;9.61;;;;;;;;;;350868;150;857744;-57
2022/06/18 03:38:33;;;;;;;10.74;9.08;;;;;;;;;;353121;149;857778;-59
2022/06/18 03:39:35;;;;;;;10.22;8.94;;;;;;;;;;352488;150;857355;-59
2022/06/18 03:40:36;;;;;;;10.40;8.83;;;;;;;;;;352927;149;858732;-56
2022/06/18 03:41:38;;;;;;;11.95;9.25;;;;;;;;;;352485;149;865042;-57
2022/06/18 03:42:41;;;;;;;12.82;9.72;;;;;;;;;;354071;150;866775;-55
2022/06/18 03:43:43;;;;;;;10.38;9.20;;;;;;;;;;353285;150;857454;-56
2022/06/18 03:44:44;;;;;;;11.07;9.50;;;;;;;;;;353454;150;856446;-58
2022/06/18 03:45:46;;;;;;;11.93;9.75;;;;;;;;;;351545;149;864939;-56
2022/06/18 03:46:48;;;;;;;11.49;9.85;;;;;;;;;;352056;149;857300;-56
2022/06/18 03:47:51;;;;;;;11.23;9.55;;;;;;;;;;352592;150;857682;-54
2022/06/18 03:49:02;;;;;;;11.54;9.80;;;;;;;;;;353079;149;859586;-57
2022/06/18 03:50:04;;;;;;;11.19;9.79;;;;;;;;;;352480;149;857211;-57
2022/06/18 03:51:06;;;;;;;13.93;10.03;;;;;;;;;;352441;150;858881;-58
2022/06/18 03:52:08;;;;;;;10.70;9.56;;;;;;;;;;353775;150;858602;-58
2022/06/18 03:53:09;;;;;;;12.72;10.01;;;;;;;;;;353151;150;857225;-58
2022/06/18 03:54:11;;;;;;;11.56;10.12;;;;;;;;;;352648;150;859455;-58
2022/06/18 03:55:13;;;;;;;12.81;10.94;;;;;;;;;;352313;150;865920;-57
2022/06/18 03:56:16;;;;;;;13.74;10.37;;;;;;;;;;352644;149;859354;-56
2022/06/18 03:57:18;;;;;;;13.71;10.99;;;;;;;;;;353502;149;857272;-58
2022/06/18 03:58:19;;;;;;;13.93;10.69;;;;;;;;;;351803;149;859171;-55
2022/06/18 04:00:38;;;;;;;12.44;10.46;;;;;;;14.74;78.50;99903.69;370294;142;881307;-56
2022/06/18 04:01:42;;;;;;;8.95;8.05;;;;;;;14.74;78.50;99903.69;362371;145;857794;-59
2022/06/18 04:02:44;;;;;;;9.24;7.54;;;;;;;14.93;78.60;99951.89;364974;145;856404;-58
2022/06/18 04:03:46;;;;;;;7.99;6.86;;;;;;;15.04;78.32;99958.55;364421;145;856204;-57
2022/06/18 04:04:48;;;;;;;11.43;6.64;;;;;;;15.14;77.51;99955.70;362906;146;863868;-59
2022/06/18 04:05:50;;;;;;;10.97;6.48;;;;;;;;;;364229;145;856765;-57
2022/06/18 04:06:51;;;;;;;10.09;6.46;;;;;;;;;;364194;145;856414;-57
2022/06/18 04:07:53;;;;;;;9.15;7.22;;;;;;;;;;352259;150;856364;-57
2022/06/18 04:08:54;;;;;;;9.01;7.36;;;;;;;;;;353118;150;856504;-58
2022/06/18 04:10:01;;;;;;;9.64;7.82;;;;;;;;;;363150;145;864277;-58
2022/06/18 04:11:00;;;;;;;8.97;7.33;;;;;;;;;;362169;145;856805;-56
2022/06/18 04:12:01;;;;;;;10.24;9.05;;;;;;;;;;363306;145;856316;-58
2022/06/18 04:13:03;;;;;;;10.39;9.01;;;;;;;;;;361895;144;856391;-58
2022/06/18 04:14:04;;;;;;;14.02;9.57;;;;;;;;;;361690;146;856363;-57
2022/06/18 04:15:06;;;;;;;12.36;9.46;;;;;;;;;;363295;144;856786;-58
2022/06/18 04:16:10;;;;;;;14.68;9.77;;;;;;;;;;363682;145;856298;-57
2022/06/18 04:17:14;;;;;;;11.25;9.90;;;;;;;;;;363650;144;856176;-57
2022/06/18 04:18:16;;;;;;;12.91;10.88;;;;;;;;;;362772;145;863826;-56
2022/06/18 04:19:17;;;;;;;14.47;10.96;;;;;;;;;;362234;145;856467;-55
2022/06/18 04:20:24;;;;;;;18.52;11.98;;;;;;;;;;365168;145;856769;-57
2022/06/18 04:21:26;;;;;;;17.41;11.54;;;;;;;;;;364138;145;856247;-58
2022/06/18 04:22:28;;;;;;;17.05;11.75;;;;;;;;;;364953;145;856301;-58
2022/06/18 04:23:29;;;;;;;17.56;12.11;;;;;;;;;;362841;145;863802;-57
2022/06/18 04:24:31;;;;;;;14.63;12.00;;;;;;;;;;362786;145;863945;-58
2022/06/18 04:25:32;;;;;;;18.54;11.92;;;;;;;;;;364148;145;858237;-59
2022/06/18 04:26:35;;;;;;;18.49;12.49;;;;;;;;;;361634;144;856395;-58
2022/06/18 04:27:37;;;;;;;15.81;11.94;;;;;;;;;;362050;145;864079;-59
2022/06/18 04:28:38;;;;;;;16.36;11.31;;;;;;;;;;363512;145;864453;-56
2022/06/18 04:29:40;;;;;;;16.68;13.09;;;;;;;;;;363449;145;856410;-57
2022/06/18 04:30:49;;;;;;;17.12;12.30;;;;;;;;;;362731;145;863675;-57
2022/06/18 04:31:54;;;;;;;19.20;12.59;;;;;;;;;;364061;145;856295;-57
2022/06/18 04:32:55;;;;;;;16.82;13.16;;;;;;;;;;362722;145;856275;-58
2022/06/18 04:33:57;;;;;;;18.89;13.33;;;;;;;;;;363514;145;866241;-58
2022/06/18 04:34:58;;;;;;;18.79;12.87;;;;;;;;;;363439;145;857162;-56
2022/06/18 04:36:00;;;;;;;16.31;12.48;;;;;;;;;;362654;144;857168;-56
2022/06/18 04:37:02;;;;;;;17.53;12.90;;;;;;;;;;365310;144;858126;-57
2022/06/18 04:38:04;;;;;;;16.41;13.15;;;;;;;;;;363643;144;858558;-55
2022/06/18 04:39:05;;;;;;;17.17;12.39;;;;;;;;;;362463;145;858394;-58
2022/06/18 04:40:08;;;;;;;17.96;13.55;;;;;;;;;;362852;145;866381;-57
2022/06/18 04:41:09;;;;;;;18.93;12.71;;;;;;;;;;362871;145;858150;-57
2022/06/18 04:42:11;;;;;;;20.03;13.07;;;;;;;;;;361955;145;857299;-56
2022/06/18 04:43:14;;;;;;;15.66;12.26;;;;;;;;;;362958;144;857311;-57
2022/06/18 04:44:15;;;;;;;17.42;12.36;;;;;;;;;;362595;146;859010;-57
2022/06/18 04:45:17;;;;;;;15.92;12.64;;;;;;;;;;363646;145;857744;-57
2022/06/18 04:46:19;;;;;;;15.50;12.61;;;;;;;;;;363799;145;857199;-61
2022/06/18 04:47:20;;;;;;;16.90;12.71;;;;;;;;;;361780;145;857148;-63
2022/06/18 04:48:22;;;;;;;16.44;12.41;;;;;;;;;;364349;144;859014;-60
2022/06/18 04:49:24;;;;;;;16.69;12.84;;;;;;;;;;364781;141;857714;-61
2022/06/18 04:50:27;;;;;;;19.20;12.99;;;;;;;;;;363075;145;866497;-60
2022/06/18 04:51:28;;;;;;;19.27;13.21;;;;;;;;;;361560;145;857258;-58
2022/06/18 04:52:30;;;;;;;18.91;12.79;;;;;;;;;;360853;145;859268;-58
2022/06/18 04:53:32;;;;;;;16.14;12.46;;;;;;;;;;363246;145;865341;-58
2022/06/18 04:54:33;;;;;;;17.14;12.31;;;;;;;;;;364147;145;857359;-58
2022/06/18 04:55:35;;;;;;;14.07;12.21;;;;;;;;;;363620;145;865690;-58
2022/06/18 04:56:37;;;;;;;16.49;12.83;;;;;;;;;;363882;145;859090;-59
2022/06/18 04:57:39;;;;;;;17.32;13.47;;;;;;;;;;362553;145;865063;-59
2022/06/18 04:58:40;;;;;;;18.05;12.63;;;;;;;;;;364844;146;857420;-59
2022/06/18 04:59:42;;;;;;;16.17;12.34;;;;;;;;;;363222;145;859038;-58
2022/06/18 05:00:44;;;;;;;16.06;12.55;;;;;;;;;;361565;144;859816;-57
2022/06/18 05:01:46;;;;;;;16.54;12.49;;;;;;;;;;360799;145;864535;-59
2022/06/18 05:02:48;;;;;;;16.74;12.79;;;;;;;;;;360607;145;857427;-58
2022/06/18 05:03:49;;;;;;;15.69;12.28;;;;;;;;;;361154;146;859019;-57
2022/06/18 05:04:51;;;;;;;20.50;12.61;;;;;;;;;;347612;151;858998;-58
2022/06/18 05:05:52;;;;;;;16.99;13.04;;;;;;;;;;343617;154;859478;-55
2022/06/18 05:06:54;;;;;;;16.34;12.26;;;;;;;;;;342047;155;857300;-55
2022/06/18 05:07:56;;;;;;;16.90;12.99;;;;;;;;;;351161;149;866771;-54
2022/06/18 05:08:57;;;;;;;19.44;12.86;;;;;;;;;;348558;153;858791;-55
2022/06/18 05:09:59;;;;;;;18.37;12.94;;;;;;;;;;348118;153;865545;-55
2022/06/18 05:11:01;;;;;;;15.61;12.24;;;;;;;;;;347897;153;857379;-60
2022/06/18 05:12:03;;;;;;;13.50;12.00;;;;;;;;;;348964;153;865576;-62
2022/06/18 05:13:06;;;;;;;16.12;11.97;;;;;;;;;;347682;153;857776;-59
2022/06/18 05:14:07;;;;;;;15.31;12.44;;;;;;;;;;348137;150;857603;-60
2022/06/18 05:15:09;;;;;;;16.54;12.13;;;;;;;;;;348149;153;857267;-60
2022/06/18 05:16:11;;;;;;;19.06;13.02;;;;;;;;;;348079;153;858000;-56
2022/06/18 05:17:14;;;;;;;16.32;12.36;;;;;;;;;;349314;153;857228;-60
2022/06/18 05:18:16;;;;;;;15.85;12.37;;;;;;;;;;346985;153;865908;-63
2022/06/18 05:19:23;;;;;;;17.17;12.38;;;;;;;;;;348289;153;857267;-60
2022/06/18 05:20:27;;;;;;;15.14;12.48;;;;;;;;;;333682;158;857240;-56
2022/06/18 05:21:29;;;;;;;15.47;11.81;;;;;;;;;;343243;150;857228;-54
2022/06/18 05:22:31;;;;;;;18.00;12.96;;;;;;;;;;360306;145;859032;-56
2022/06/18 05:23:33;;;;;;;15.69;12.78;;;;;;;;;;347828;151;857393;-55
2022/06/18 05:24:35;;;;;;;17.37;12.75;;;;;;;;;;347008;151;858299;-55
2022/06/18 05:25:37;;;;;;;19.65;12.46;;;;;;;;;;348122;151;859182;-55
2022/06/18 05:26:40;;;;;;;16.22;12.95;;;;;;;;;;348683;151;860408;-55
2022/06/18 05:27:42;;;;;;;13.49;11.97;;;;;;;;;;349112;152;857343;-54
2022/06/18 05:28:44;;;;;;;18.43;12.71;;;;;;;;;;348621;152;857732;-55
2022/06/18 05:29:46;;;;;;;17.18;12.60;;;;;;;;;;350717;152;858653;-54
2022/06/18 05:30:48;;;;;;;16.05;12.25;;;;;;;;;;350331;152;859137;-56
2022/06/18 05:31:49;;;;;;;18.57;12.71;;;;;;;;;;351544;150;859508;-55
2022/06/18 05:32:53;;;;;;;16.10;11.99;;;;;;;;;;351419;152;857376;-56
2022/06/18 05:33:54;;;;;;;13.90;11.58;;;;;;;;;;347392;151;857299;-54
2022/06/18 05:34:56;;;;;;;18.29;11.16;;;;;;;;;;350832;152;857265;-56
2022/06/18 05:35:57;;;;;;;14.03;11.44;;;;;;;;;;349077;152;859274;-55
2022/06/18 05:36:59;;;;;;;13.79;11.44;;;;;;;;;;347065;151;858891;-54
2022/06/18 05:38:01;;;;;;;15.01;11.54;;;;;;;;;;349024;152;865058;-59
2022/06/18 05:39:03;;;;;;;13.40;11.04;;;;;;;;;;344421;151;859125;-52
2022/06/18 05:40:05;;;;;;;13.54;11.58;;;;;;;;;;352080;151;866265;-55
2022/06/18 05:41:07;;;;;;;15.33;11.67;;;;;;;;;;352959;151;857126;-62
2022/06/18 05:42:08;;;;;;;15.33;11.94;;;;;;;;;;353487;150;858371;-59
2022/06/18 05:43:10;;;;;;;17.59;11.64;;;;;;;;;;351189;151;866730;-60
2022/06/18 05:44:13;;;;;;;16.69;11.79;;;;;;;;;;352361;151;858243;-60
2022/06/18 05:45:15;;;;;;;16.04;11.46;;;;;;;;;;351636;151;858639;-60
2022/06/18 05:46:18;;;;;;;17.30;11.96;;;;;;;;;;351247;151;857277;-57
2022/06/18 05:47:21;;;;;;;14.88;11.44;;;;;;;;;;353855;148;857259;-61
2022/06/18 05:48:22;;;;;;;14.75;11.23;;;;;;;;;;353447;151;864586;-62
2022/06/18 05:49:24;;;;;;;16.91;11.89;;;;;;;;;;353641;151;865961;-59
2022/06/18 05:50:26;;;;;;;13.68;11.79;;;;;;;;;;352747;150;858515;-63
2022/06/18 05:51:27;;;;;;;14.39;11.41;;;;;;;;;;353629;148;858057;-60
2022/06/18 05:52:29;;;;;;;14.32;11.03;;;;;;;;;;352279;150;865434;-58
2022/06/18 05:53:31;;;;;;;12.49;10.32;;;;;;;;;;347272;151;859212;-57
2022/06/18 05:54:32;;;;;;;13.29;11.28;;;;;;;;;;348903;152;865126;-59
2022/06/18 05:55:34;;;;;;;15.11;10.86;;;;;;;;;;349045;151;857881;-58
2022/06/18 05:56:35;;;;;;;13.50;10.99;;;;;;;;;;349316;151;867537;-55
2022/06/18 05:57:51;;;;;;;13.13;10.61;;;;;;;;;;344268;153;865683;-58
2022/06/18 05:58:53;;;;;;;13.53;10.36;;;;;;;;;;349754;150;858112;-58
2022/06/18 05:59:54;;;;;;;13.32;10.71;;;;;;;;;;349900;152;857317;-58
2022/06/18 06:00:56;;;;;;;11.36;9.76;;;;;;;;;;348595;152;857210;-57
2022/06/18 06:01:58;;;;;;;14.94;10.34;;;;;;;;;;354664;149;864637;-58
2022/06/18 06:02:59;;;;;;;11.43;9.78;;;;;;;;;;353347;149;858071;-59
2022/06/18 06:04:01;;;;;;;14.28;9.59;;;;;;;;;;354084;149;865007;-60
2022/06/18 06:05:03;;;;;;;12.79;9.05;;;;;;;;;;354438;149;866695;-58
2022/06/18 06:06:05;;;;;;;10.11;8.51;;;;;;;;;;354801;149;859111;-59
2022/06/18 06:07:07;;;;;;;10.84;9.18;;;;;;;;;;354638;149;857297;-59
2022/06/18 06:08:10;;;;;;;14.49;9.40;;;;;;;;;;353148;149;865787;-57
2022/06/18 06:09:12;;;;;;;11.01;9.33;;;;;;;;;;352888;149;857253;-58
2022/06/18 06:11:43;;;;;;;14.17;9.49;;;;;;;;;;354174;151;858840;-57
2022/06/18 06:12:44;;;;;;;12.21;10.12;;;;;;;;;;354881;151;856740;-57
2022/06/18 06:13:46;;;;;;;14.30;9.57;;;;;;;;;;352861;149;856308;-59
2022/06/18 06:14:47;;;;;;;11.41;9.64;;;;;;;;;;352810;150;858969;-58